Marathon, Texas
Current Conditions -  °F | °C
As of 11:55 AM on Tuesday 21 Oct 2014 (Local Time) from KE38 Reporting Station
Overcast Overcast  
Wind Chill: 60°   Ceiling: 7000
Heat Index: 60°   Visibility: 10mi
Dew Point: 55°   Wind: 0mph
Humidity: 84%   Direction: NA
Pressure: 30.2"   Gusts: NA
Location:  30.21°N, 103.25°W
Report Text: KE38 211655Z AUTO 00000KT 10SM SCT044 BKN070 OVC075 16/13 A3020 RMK AO2 T01550129
Loading
Personal Weather Stations






























Interactive Weather Map
Tropical Storm Tracking
New forecast layout! Learn more

10-Day Weather Forecast

Advertisements
Track Severe Weather on mobile